Aviation Digital Data Service (ADDS)

Output produced by TAFs form (0032 UTC 21 January 2018)
found at http://aviationweather.gov/adds/tafs/
 
KTCS 202328Z 2100/2124 21022G30KT P6SM FEW100 SCT250 
     FM210300 21021G28KT P6SM VCSH SCT040 
     FM210800 24024G31KT P6SM FEW060 SCT250 
     FM211600 25031G38KT P6SM FEW250 
     FM212100 29027G35KT P6SM SKC